メインページ
METAR-TAF:

METAR-TAF

空港 :

ナンディ国際空港

ナンディ, フィジー

緯度: 17-45S, 経度: 177-27E, 海抜: 13m

現時点の気象観測

当レポートは11分前の22:00(UTC)に作成
の風 6kt、東/北東から南東の間で変化する
気温 29°C
湿度 62%
気圧 1014 hPa
視程10km以上
高度2800ftの雲は散在している
高度5000ftの雲は散在している
高度15000ftの千切れ雲あり

METAR: NFFN 202200Z 09006KT 060V130 9999 SCT028 SCT050 BKN150 29/21 Q1014 NOSIG

時間: 10:11 (22:11 UTC)

予報

当レポートは5時間9分前の17:02(UTC)に作成
予報は20日の 18時(UTC)から 21日の 18時(UTC)まで有効
南東の風 7kt
視程10km以上
高度2000ftの雲は散在している
高度4000ftの千切れ雲あり
確率 40% :
20日の 19時(UTC)から 20日の 24時(UTC)まで一時的に
視程: 5000m
高度1500ftの千切れ雲あり
にわか雨
20日の 22時(UTC)から 20日の 24時(UTC)まで徐々に
西/南西の風 10kt
確率 40% :
21日の 00時(UTC)から 21日の 06時(UTC)まで一時的に
視程: 3000m
高度1500ftの千切れ雲あり
高度1800ftの雲はほとんどない, 積乱雲.
激しい雷雨, 雨
21日の 03時(UTC)から 21日の 05時(UTC)まで徐々に
の風 6kt

TAF: NFFN 201702Z 2018/2118 13007KT 9999 SCT020 BKN040 PROB40 TEMPO 2019/2024 5000 SHRA BKN015 BECMG 2022/2024 25010KT PROB40 TEMPO 2100/2106 3000 TSRA BKN015 FEW018CB BECMG 2103/2105 09006KT

4,000以上の空港の気象観測と天気予報(METAR報とTAF報)

利用可能な観測所は地図上に黄色い丸と赤い丸で示す。

丸の上にカーソルを重ねると観測所名を参照できる。

次にクリックすると気象観測と天気予報を参照できる。

マップの切り替え:黒色「×」印の緑ボタンをクリックして拡大、「-」印の緑ボタンをクリックして縮小、緑色の三角印をクリックして隣りの地図に切り替え


METAR-TAF: